sensor_id;sensor_type;location;lat;lon;timestamp;P1;durP1;ratioP1;P2;durP2;ratioP2
59408;SDS011;45213;32.654;-115.458;2022-07-06T00:01:53;7.22;;;1.20;;
59408;SDS011;45213;32.654;-115.458;2022-07-06T00:04:20;2.15;;;1.20;;
59408;SDS011;45213;32.654;-115.458;2022-07-06T00:06:48;4.53;;;1.60;;
59408;SDS011;45213;32.654;-115.458;2022-07-06T00:09:15;4.95;;;1.35;;
59408;SDS011;45213;32.654;-115.458;2022-07-06T00:11:42;6.80;;;1.50;;
59408;SDS011;45213;32.654;-115.458;2022-07-06T00:14:08;3.17;;;1.20;;
59408;SDS011;45213;32.654;-115.458;2022-07-06T00:16:35;4.68;;;1.17;;
59408;SDS011;45213;32.654;-115.458;2022-07-06T00:19:02;9.02;;;1.70;;
59408;SDS011;45213;32.654;-115.458;2022-07-06T00:21:28;5.13;;;1.15;;
59408;SDS011;45213;32.654;-115.458;2022-07-06T00:23:55;3.20;;;1.08;;
59408;SDS011;45213;32.654;-115.458;2022-07-06T00:26:21;6.82;;;1.30;;
59408;SDS011;45213;32.654;-115.458;2022-07-06T00:28:48;5.47;;;1.40;;
59408;SDS011;45213;32.654;-115.458;2022-07-06T00:31:15;7.38;;;1.35;;
59408;SDS011;45213;32.654;-115.458;2022-07-06T00:33:41;3.90;;;1.13;;
59408;SDS011;45213;32.654;-115.458;2022-07-06T00:36:09;5.13;;;1.17;;
59408;SDS011;45213;32.654;-115.458;2022-07-06T00:38:36;7.80;;;1.48;;
59408;SDS011;45213;32.654;-115.458;2022-07-06T00:41:03;7.15;;;1.52;;
59408;SDS011;45213;32.654;-115.458;2022-07-06T00:43:45;4.80;;;1.25;;
59408;SDS011;45213;32.654;-115.458;2022-07-06T00:46:16;6.30;;;1.23;;
59408;SDS011;45213;32.654;-115.458;2022-07-06T00:48:42;7.47;;;1.80;;
59408;SDS011;45213;32.654;-115.458;2022-07-06T00:51:10;6.15;;;1.20;;
59408;SDS011;45213;32.654;-115.458;2022-07-06T00:53:38;3.55;;;1.23;;
59408;SDS011;45213;32.654;-115.458;2022-07-06T00:56:06;4.45;;;1.30;;
59408;SDS011;45213;32.654;-115.458;2022-07-06T00:58:33;6.10;;;1.38;;
59408;SDS011;45213;32.654;-115.458;2022-07-06T01:01:00;3.80;;;1.10;;
59408;SDS011;45213;32.654;-115.458;2022-07-06T01:03:26;4.13;;;1.38;;
59408;SDS011;45213;32.654;-115.458;2022-07-06T01:05:53;7.05;;;1.15;;
59408;SDS011;45213;32.654;-115.458;2022-07-06T01:08:20;3.90;;;1.20;;
59408;SDS011;45213;32.654;-115.458;2022-07-06T01:10:47;4.45;;;1.00;;
59408;SDS011;45213;32.654;-115.458;2022-07-06T01:13:15;4.15;;;1.23;;
59408;SDS011;45213;32.654;-115.458;2022-07-06T01:15:41;5.57;;;1.00;;
59408;SDS011;45213;32.654;-115.458;2022-07-06T01:18:09;4.55;;;0.90;;
59408;SDS011;45213;32.654;-115.458;2022-07-06T01:20:37;2.90;;;0.90;;
59408;SDS011;45213;32.654;-115.458;2022-07-06T01:23:03;4.07;;;1.30;;
59408;SDS011;45213;32.654;-115.458;2022-07-06T01:25:30;9.57;;;1.33;;
59408;SDS011;45213;32.654;-115.458;2022-07-06T01:27:58;4.72;;;1.20;;
59408;SDS011;45213;32.654;-115.458;2022-07-06T01:30:24;4.68;;;1.30;;
59408;SDS011;45213;32.654;-115.458;2022-07-06T01:32:54;3.08;;;1.10;;
59408;SDS011;45213;32.654;-115.458;2022-07-06T01:35:21;4.97;;;1.17;;
59408;SDS011;45213;32.654;-115.458;2022-07-06T01:37:52;10.38;;;1.92;;
59408;SDS011;45213;32.654;-115.458;2022-07-06T01:40:19;6.35;;;1.63;;
59408;SDS011;45213;32.654;-115.458;2022-07-06T01:42:46;5.80;;;1.30;;
59408;SDS011;45213;32.654;-115.458;2022-07-06T01:45:13;6.53;;;1.10;;
59408;SDS011;45213;32.654;-115.458;2022-07-06T01:47:40;5.18;;;1.42;;
59408;SDS011;45213;32.654;-115.458;2022-07-06T01:50:08;7.10;;;1.42;;
59408;SDS011;45213;32.654;-115.458;2022-07-06T01:52:41;5.00;;;1.35;;
59408;SDS011;45213;32.654;-115.458;2022-07-06T01:55:10;6.28;;;1.13;;
59408;SDS011;45213;32.654;-115.458;2022-07-06T01:57:38;7.20;;;1.35;;
59408;SDS011;45213;32.654;-115.458;2022-07-06T02:00:05;4.32;;;1.10;;
59408;SDS011;45213;32.654;-115.458;2022-07-06T02:02:38;9.05;;;1.38;;
59408;SDS011;45213;32.654;-115.458;2022-07-06T02:05:05;8.00;;;1.50;;
59408;SDS011;45213;32.654;-115.458;2022-07-06T02:07:32;3.15;;;0.98;;
59408;SDS011;45213;32.654;-115.458;2022-07-06T02:10:00;5.82;;;1.40;;
59408;SDS011;45213;32.654;-115.458;2022-07-06T02:12:27;6.05;;;1.60;;
59408;SDS011;45213;32.654;-115.458;2022-07-06T02:14:54;5.65;;;2.08;;
59408;SDS011;45213;32.654;-115.458;2022-07-06T02:17:24;6.28;;;1.33;;
59408;SDS011;45213;32.654;-115.458;2022-07-06T02:19:50;3.45;;;1.40;;
59408;SDS011;45213;32.654;-115.458;2022-07-06T02:22:17;8.25;;;1.52;;
59408;SDS011;45213;32.654;-115.458;2022-07-06T02:24:44;3.92;;;1.45;;
59408;SDS011;45213;32.654;-115.458;2022-07-06T02:27:10;6.68;;;1.50;;
59408;SDS011;45213;32.654;-115.458;2022-07-06T02:29:38;7.63;;;1.23;;
59408;SDS011;45213;32.654;-115.458;2022-07-06T02:32:06;9.43;;;1.75;;
59408;SDS011;45213;32.654;-115.458;2022-07-06T02:34:36;8.98;;;1.40;;
59408;SDS011;45213;32.654;-115.458;2022-07-06T02:37:03;5.68;;;1.23;;
59408;SDS011;45213;32.654;-115.458;2022-07-06T02:39:33;4.55;;;1.42;;
59408;SDS011;45213;32.654;-115.458;2022-07-06T02:41:59;5.20;;;1.35;;
59408;SDS011;45213;32.654;-115.458;2022-07-06T02:44:29;7.03;;;1.65;;
59408;SDS011;45213;32.654;-115.458;2022-07-06T02:46:55;7.20;;;1.98;;
59408;SDS011;45213;32.654;-115.458;2022-07-06T02:49:25;16.17;;;2.10;;
59408;SDS011;45213;32.654;-115.458;2022-07-06T02:51:51;10.95;;;2.25;;
59408;SDS011;45213;32.654;-115.458;2022-07-06T02:54:18;10.18;;;1.63;;
59408;SDS011;45213;32.654;-115.458;2022-07-06T02:56:45;3.08;;;1.33;;
59408;SDS011;45213;32.654;-115.458;2022-07-06T02:59:17;7.45;;;1.70;;
59408;SDS011;45213;32.654;-115.458;2022-07-06T03:01:44;6.82;;;1.63;;
59408;SDS011;45213;32.654;-115.458;2022-07-06T03:04:11;6.93;;;1.55;;
59408;SDS011;45213;32.654;-115.458;2022-07-06T03:06:37;5.15;;;1.58;;
59408;SDS011;45213;32.654;-115.458;2022-07-06T03:09:05;4.70;;;1.80;;
59408;SDS011;45213;32.654;-115.458;2022-07-06T03:11:33;6.38;;;1.75;;
59408;SDS011;45213;32.654;-115.458;2022-07-06T03:14:03;7.80;;;1.57;;
59408;SDS011;45213;32.654;-115.458;2022-07-06T03:16:32;10.88;;;1.90;;
59408;SDS011;45213;32.654;-115.458;2022-07-06T03:18:59;3.78;;;1.30;;
59408;SDS011;45213;32.654;-115.458;2022-07-06T03:21:26;7.88;;;2.17;;
59408;SDS011;45213;32.654;-115.458;2022-07-06T03:23:53;8.55;;;1.90;;
59408;SDS011;45213;32.654;-115.458;2022-07-06T03:26:20;9.75;;;1.67;;
59408;SDS011;45213;32.654;-115.458;2022-07-06T03:28:50;8.57;;;1.55;;
59408;SDS011;45213;32.654;-115.458;2022-07-06T03:31:17;9.52;;;1.95;;
59408;SDS011;45213;32.654;-115.458;2022-07-06T03:33:47;14.85;;;2.38;;
59408;SDS011;45213;32.654;-115.458;2022-07-06T03:36:14;10.15;;;2.55;;
59408;SDS011;45213;32.654;-115.458;2022-07-06T03:38:42;13.10;;;2.30;;
59408;SDS011;45213;32.654;-115.458;2022-07-06T03:41:08;10.48;;;2.60;;
59408;SDS011;45213;32.654;-115.458;2022-07-06T03:43:35;14.48;;;2.33;;
59408;SDS011;45213;32.654;-115.458;2022-07-06T03:46:03;11.55;;;2.95;;
59408;SDS011;45213;32.654;-115.458;2022-07-06T03:48:33;13.13;;;2.80;;
59408;SDS011;45213;32.654;-115.458;2022-07-06T03:51:04;22.50;;;3.20;;
59408;SDS011;45213;32.654;-115.458;2022-07-06T03:53:41;11.05;;;2.13;;
59408;SDS011;45213;32.654;-115.458;2022-07-06T03:56:08;10.40;;;2.75;;
59408;SDS011;45213;32.654;-115.458;2022-07-06T03:59:01;21.70;;;2.70;;
59408;SDS011;45213;32.654;-115.458;2022-07-06T04:01:35;9.40;;;2.28;;
59408;SDS011;45213;32.654;-115.458;2022-07-06T04:04:05;13.57;;;2.53;;
59408;SDS011;45213;32.654;-115.458;2022-07-06T04:06:34;15.48;;;2.30;;
59408;SDS011;45213;32.654;-115.458;2022-07-06T04:09:01;8.45;;;1.98;;
59408;SDS011;45213;32.654;-115.458;2022-07-06T04:11:28;16.98;;;2.17;;
59408;SDS011;45213;32.654;-115.458;2022-07-06T04:13:56;14.95;;;2.47;;
59408;SDS011;45213;32.654;-115.458;2022-07-06T04:16:24;10.95;;;2.38;;
59408;SDS011;45213;32.654;-115.458;2022-07-06T04:18:54;11.23;;;2.42;;
59408;SDS011;45213;32.654;-115.458;2022-07-06T04:21:23;12.32;;;2.30;;
59408;SDS011;45213;32.654;-115.458;2022-07-06T04:23:51;8.23;;;2.10;;
59408;SDS011;45213;32.654;-115.458;2022-07-06T04:26:20;9.32;;;1.77;;
59408;SDS011;45213;32.654;-115.458;2022-07-06T04:28:47;14.10;;;2.03;;
59408;SDS011;45213;32.654;-115.458;2022-07-06T04:31:14;22.92;;;7.20;;
59408;SDS011;45213;32.654;-115.458;2022-07-06T04:33:43;24.30;;;13.70;;
59408;SDS011;45213;32.654;-115.458;2022-07-06T04:36:10;29.60;;;13.18;;
59408;SDS011;45213;32.654;-115.458;2022-07-06T04:38:41;24.50;;;8.30;;
59408;SDS011;45213;32.654;-115.458;2022-07-06T04:41:10;22.25;;;6.63;;
59408;SDS011;45213;32.654;-115.458;2022-07-06T04:43:40;9.88;;;3.30;;
59408;SDS011;45213;32.654;-115.458;2022-07-06T04:46:08;12.93;;;2.70;;
59408;SDS011;45213;32.654;-115.458;2022-07-06T04:48:40;10.23;;;2.10;;
59408;SDS011;45213;32.654;-115.458;2022-07-06T04:51:12;15.23;;;2.25;;
59408;SDS011;45213;32.654;-115.458;2022-07-06T04:53:40;13.35;;;2.30;;
59408;SDS011;45213;32.654;-115.458;2022-07-06T04:56:07;8.55;;;1.83;;
59408;SDS011;45213;32.654;-115.458;2022-07-06T04:58:36;11.32;;;1.70;;
59408;SDS011;45213;32.654;-115.458;2022-07-06T05:01:09;4.97;;;1.60;;
59408;SDS011;45213;32.654;-115.458;2022-07-06T05:03:36;6.57;;;1.45;;
59408;SDS011;45213;32.654;-115.458;2022-07-06T05:06:07;5.07;;;1.08;;
59408;SDS011;45213;32.654;-115.458;2022-07-06T05:08:35;10.65;;;1.67;;
59408;SDS011;45213;32.654;-115.458;2022-07-06T05:11:01;8.05;;;1.90;;
59408;SDS011;45213;32.654;-115.458;2022-07-06T05:13:29;8.75;;;2.10;;
59408;SDS011;45213;32.654;-115.458;2022-07-06T05:15:55;6.95;;;2.42;;
59408;SDS011;45213;32.654;-115.458;2022-07-06T05:18:22;5.55;;;2.30;;
59408;SDS011;45213;32.654;-115.458;2022-07-06T05:20:49;6.72;;;2.30;;
59408;SDS011;45213;32.654;-115.458;2022-07-06T05:23:16;19.55;;;3.40;;
59408;SDS011;45213;32.654;-115.458;2022-07-06T05:25:43;19.63;;;8.18;;
59408;SDS011;45213;32.654;-115.458;2022-07-06T05:28:11;9.00;;;2.35;;
59408;SDS011;45213;32.654;-115.458;2022-07-06T05:30:40;6.35;;;2.10;;
59408;SDS011;45213;32.654;-115.458;2022-07-06T05:33:08;5.63;;;1.85;;
59408;SDS011;45213;32.654;-115.458;2022-07-06T05:35:38;8.60;;;1.67;;
59408;SDS011;45213;32.654;-115.458;2022-07-06T05:38:09;5.28;;;2.05;;
59408;SDS011;45213;32.654;-115.458;2022-07-06T05:40:37;5.45;;;1.63;;
59408;SDS011;45213;32.654;-115.458;2022-07-06T05:43:04;6.53;;;1.48;;
59408;SDS011;45213;32.654;-115.458;2022-07-06T05:45:31;5.65;;;1.40;;
59408;SDS011;45213;32.654;-115.458;2022-07-06T05:47:58;6.35;;;1.90;;
59408;SDS011;45213;32.654;-115.458;2022-07-06T05:50:43;6.50;;;1.70;;
59408;SDS011;45213;32.654;-115.458;2022-07-06T05:53:16;4.72;;;1.50;;
59408;SDS011;45213;32.654;-115.458;2022-07-06T05:55:45;7.55;;;1.83;;
59408;SDS011;45213;32.654;-115.458;2022-07-06T05:58:12;7.07;;;1.63;;
59408;SDS011;45213;32.654;-115.458;2022-07-06T06:00:41;8.25;;;1.40;;
59408;SDS011;45213;32.654;-115.458;2022-07-06T06:03:16;5.38;;;1.60;;
59408;SDS011;45213;32.654;-115.458;2022-07-06T06:05:46;5.32;;;1.85;;
59408;SDS011;45213;32.654;-115.458;2022-07-06T06:08:14;7.45;;;1.98;;
59408;SDS011;45213;32.654;-115.458;2022-07-06T06:10:41;4.38;;;1.83;;
59408;SDS011;45213;32.654;-115.458;2022-07-06T06:13:12;9.73;;;2.33;;
59408;SDS011;45213;32.654;-115.458;2022-07-06T06:15:44;6.82;;;2.08;;
59408;SDS011;45213;32.654;-115.458;2022-07-06T06:18:10;8.23;;;2.20;;
59408;SDS011;45213;32.654;-115.458;2022-07-06T06:20:38;7.38;;;2.05;;
59408;SDS011;45213;32.654;-115.458;2022-07-06T06:23:04;4.03;;;1.65;;
59408;SDS011;45213;32.654;-115.458;2022-07-06T06:25:35;7.97;;;2.20;;
59408;SDS011;45213;32.654;-115.458;2022-07-06T06:28:08;6.40;;;2.30;;
59408;SDS011;45213;32.654;-115.458;2022-07-06T06:30:38;6.82;;;2.30;;
59408;SDS011;45213;32.654;-115.458;2022-07-06T06:35:43;7.82;;;2.10;;
59408;SDS011;45213;32.654;-115.458;2022-07-06T06:38:10;5.07;;;2.40;;
59408;SDS011;45213;32.654;-115.458;2022-07-06T06:40:39;8.18;;;2.80;;
59408;SDS011;45213;32.654;-115.458;2022-07-06T06:43:06;9.20;;;2.90;;
59408;SDS011;45213;32.654;-115.458;2022-07-06T06:45:40;9.07;;;3.08;;
59408;SDS011;45213;32.654;-115.458;2022-07-06T06:48:10;7.60;;;3.00;;
59408;SDS011;45213;32.654;-115.458;2022-07-06T06:50:37;7.72;;;2.30;;
59408;SDS011;45213;32.654;-115.458;2022-07-06T06:53:06;6.85;;;2.13;;
59408;SDS011;45213;32.654;-115.458;2022-07-06T06:55:32;5.13;;;1.58;;
59408;SDS011;45213;32.654;-115.458;2022-07-06T06:58:04;8.45;;;2.35;;
59408;SDS011;45213;32.654;-115.458;2022-07-06T07:00:31;6.63;;;2.28;;
59408;SDS011;45213;32.654;-115.458;2022-07-06T07:03:00;11.00;;;2.40;;
59408;SDS011;45213;32.654;-115.458;2022-07-06T07:05:27;6.75;;;1.88;;
59408;SDS011;45213;32.654;-115.458;2022-07-06T07:07:53;8.07;;;1.88;;
59408;SDS011;45213;32.654;-115.458;2022-07-06T07:10:25;5.93;;;1.48;;
59408;SDS011;45213;32.654;-115.458;2022-07-06T07:12:54;5.55;;;1.77;;
59408;SDS011;45213;32.654;-115.458;2022-07-06T07:15:21;5.90;;;1.60;;
59408;SDS011;45213;32.654;-115.458;2022-07-06T07:17:48;5.30;;;1.60;;
59408;SDS011;45213;32.654;-115.458;2022-07-06T07:20:17;8.40;;;2.25;;
59408;SDS011;45213;32.654;-115.458;2022-07-06T07:22:44;8.00;;;1.90;;
59408;SDS011;45213;32.654;-115.458;2022-07-06T07:25:14;8.07;;;2.30;;
59408;SDS011;45213;32.654;-115.458;2022-07-06T07:27:41;6.55;;;2.13;;
59408;SDS011;45213;32.654;-115.458;2022-07-06T07:30:08;6.38;;;1.85;;
59408;SDS011;45213;32.654;-115.458;2022-07-06T07:32:35;6.35;;;1.98;;
59408;SDS011;45213;32.654;-115.458;2022-07-06T07:35:02;9.05;;;1.90;;
59408;SDS011;45213;32.654;-115.458;2022-07-06T07:37:32;8.50;;;1.77;;
59408;SDS011;45213;32.654;-115.458;2022-07-06T07:39:59;4.47;;;1.50;;
59408;SDS011;45213;32.654;-115.458;2022-07-06T07:42:26;7.68;;;1.95;;
59408;SDS011;45213;32.654;-115.458;2022-07-06T07:44:52;7.40;;;1.92;;
59408;SDS011;45213;32.654;-115.458;2022-07-06T07:47:19;6.75;;;1.75;;
59408;SDS011;45213;32.654;-115.458;2022-07-06T07:49:46;6.95;;;2.20;;
59408;SDS011;45213;32.654;-115.458;2022-07-06T07:52:14;5.70;;;1.70;;
59408;SDS011;45213;32.654;-115.458;2022-07-06T07:54:44;6.35;;;2.47;;
59408;SDS011;45213;32.654;-115.458;2022-07-06T07:57:14;8.60;;;2.60;;
59408;SDS011;45213;32.654;-115.458;2022-07-06T07:59:44;26.23;;;4.57;;
59408;SDS011;45213;32.654;-115.458;2022-07-06T08:02:10;8.07;;;2.47;;
59408;SDS011;45213;32.654;-115.458;2022-07-06T08:04:37;8.48;;;2.67;;
59408;SDS011;45213;32.654;-115.458;2022-07-06T08:07:04;6.13;;;2.72;;
59408;SDS011;45213;32.654;-115.458;2022-07-06T08:09:31;5.93;;;2.63;;
59408;SDS011;45213;32.654;-115.458;2022-07-06T08:12:00;10.55;;;2.88;;
59408;SDS011;45213;32.654;-115.458;2022-07-06T08:14:28;6.80;;;2.92;;
59408;SDS011;45213;32.654;-115.458;2022-07-06T08:16:54;7.35;;;2.78;;
59408;SDS011;45213;32.654;-115.458;2022-07-06T08:19:21;6.78;;;2.90;;
59408;SDS011;45213;32.654;-115.458;2022-07-06T08:21:48;5.90;;;2.60;;
59408;SDS011;45213;32.654;-115.458;2022-07-06T08:24:14;7.53;;;2.75;;
59408;SDS011;45213;32.654;-115.458;2022-07-06T08:26:41;6.95;;;3.00;;
59408;SDS011;45213;32.654;-115.458;2022-07-06T08:29:08;10.93;;;3.30;;
59408;SDS011;45213;32.654;-115.458;2022-07-06T08:31:37;9.32;;;3.22;;
59408;SDS011;45213;32.654;-115.458;2022-07-06T08:34:06;7.13;;;2.80;;
59408;SDS011;45213;32.654;-115.458;2022-07-06T08:36:37;9.23;;;2.88;;
59408;SDS011;45213;32.654;-115.458;2022-07-06T08:39:04;11.07;;;2.90;;
59408;SDS011;45213;32.654;-115.458;2022-07-06T08:41:30;8.57;;;2.40;;
59408;SDS011;45213;32.654;-115.458;2022-07-06T08:43:57;4.57;;;2.00;;
59408;SDS011;45213;32.654;-115.458;2022-07-06T08:46:24;6.13;;;2.30;;
59408;SDS011;45213;32.654;-115.458;2022-07-06T08:48:53;5.47;;;2.10;;
59408;SDS011;45213;32.654;-115.458;2022-07-06T08:51:27;7.38;;;2.47;;
59408;SDS011;45213;32.654;-115.458;2022-07-06T08:53:54;5.35;;;2.17;;
59408;SDS011;45213;32.654;-115.458;2022-07-06T08:56:22;6.13;;;2.08;;
59408;SDS011;45213;32.654;-115.458;2022-07-06T08:58:49;6.80;;;2.03;;
59408;SDS011;45213;32.654;-115.458;2022-07-06T09:01:17;7.07;;;2.22;;
59408;SDS011;45213;32.654;-115.458;2022-07-06T09:03:45;7.85;;;2.50;;
59408;SDS011;45213;32.654;-115.458;2022-07-06T09:06:16;6.93;;;2.78;;
59408;SDS011;45213;32.654;-115.458;2022-07-06T09:08:52;9.70;;;2.53;;
59408;SDS011;45213;32.654;-115.458;2022-07-06T09:11:23;5.22;;;2.30;;
59408;SDS011;45213;32.654;-115.458;2022-07-06T09:13:54;5.72;;;2.53;;
59408;SDS011;45213;32.654;-115.458;2022-07-06T09:16:25;5.35;;;2.05;;
59408;SDS011;45213;32.654;-115.458;2022-07-06T09:18:58;3.97;;;1.90;;
59408;SDS011;45213;32.654;-115.458;2022-07-06T09:21:26;6.05;;;1.20;;
59408;SDS011;45213;32.654;-115.458;2022-07-06T09:24:00;2.13;;;1.30;;
59408;SDS011;45213;32.654;-115.458;2022-07-06T09:26:31;3.70;;;0.90;;
59408;SDS011;45213;32.654;-115.458;2022-07-06T09:29:01;2.88;;;0.90;;
59408;SDS011;45213;32.654;-115.458;2022-07-06T09:31:28;2.67;;;1.15;;
59408;SDS011;45213;32.654;-115.458;2022-07-06T09:33:58;3.80;;;1.27;;
59408;SDS011;45213;32.654;-115.458;2022-07-06T09:36:47;3.92;;;1.20;;
59408;SDS011;45213;32.654;-115.458;2022-07-06T09:39:22;5.43;;;1.33;;
59408;SDS011;45213;32.654;-115.458;2022-07-06T09:41:50;3.20;;;1.00;;
59408;SDS011;45213;32.654;-115.458;2022-07-06T09:44:31;3.83;;;1.20;;
59408;SDS011;45213;32.654;-115.458;2022-07-06T09:47:01;3.65;;;1.20;;
59408;SDS011;45213;32.654;-115.458;2022-07-06T09:49:29;3.85;;;1.25;;
59408;SDS011;45213;32.654;-115.458;2022-07-06T09:51:57;4.30;;;1.50;;
59408;SDS011;45213;32.654;-115.458;2022-07-06T09:54:25;7.25;;;1.60;;
59408;SDS011;45213;32.654;-115.458;2022-07-06T09:56:53;3.67;;;1.00;;
59408;SDS011;45213;32.654;-115.458;2022-07-06T09:59:24;5.25;;;1.40;;
59408;SDS011;45213;32.654;-115.458;2022-07-06T10:01:58;3.47;;;1.30;;
59408;SDS011;45213;32.654;-115.458;2022-07-06T10:04:29;3.53;;;1.00;;
59408;SDS011;45213;32.654;-115.458;2022-07-06T10:06:56;5.95;;;1.40;;
59408;SDS011;45213;32.654;-115.458;2022-07-06T10:09:25;4.82;;;1.20;;
59408;SDS011;45213;32.654;-115.458;2022-07-06T10:11:57;4.75;;;1.60;;
59408;SDS011;45213;32.654;-115.458;2022-07-06T10:14:27;4.70;;;1.15;;
59408;SDS011;45213;32.654;-115.458;2022-07-06T10:16:55;3.50;;;0.93;;
59408;SDS011;45213;32.654;-115.458;2022-07-06T10:19:24;4.78;;;1.42;;
59408;SDS011;45213;32.654;-115.458;2022-07-06T10:21:52;4.10;;;1.42;;
59408;SDS011;45213;32.654;-115.458;2022-07-06T10:24:22;3.95;;;1.05;;
59408;SDS011;45213;32.654;-115.458;2022-07-06T10:26:49;5.00;;;1.30;;
59408;SDS011;45213;32.654;-115.458;2022-07-06T10:29:16;6.10;;;1.33;;
59408;SDS011;45213;32.654;-115.458;2022-07-06T10:31:43;6.15;;;1.27;;
59408;SDS011;45213;32.654;-115.458;2022-07-06T10:34:12;6.22;;;1.63;;
59408;SDS011;45213;32.654;-115.458;2022-07-06T10:36:41;3.08;;;1.40;;
59408;SDS011;45213;32.654;-115.458;2022-07-06T10:39:10;5.10;;;1.65;;
59408;SDS011;45213;32.654;-115.458;2022-07-06T10:41:56;5.07;;;1.95;;
59408;SDS011;45213;32.654;-115.458;2022-07-06T10:44:26;5.10;;;1.70;;
59408;SDS011;45213;32.654;-115.458;2022-07-06T10:46:54;4.78;;;1.65;;
59408;SDS011;45213;32.654;-115.458;2022-07-06T10:49:22;7.22;;;2.20;;
59408;SDS011;45213;32.654;-115.458;2022-07-06T10:51:50;5.55;;;1.75;;
59408;SDS011;45213;32.654;-115.458;2022-07-06T10:54:22;4.30;;;2.00;;
59408;SDS011;45213;32.654;-115.458;2022-07-06T10:56:52;4.13;;;1.88;;
59408;SDS011;45213;32.654;-115.458;2022-07-06T10:59:20;4.20;;;1.70;;
59408;SDS011;45213;32.654;-115.458;2022-07-06T11:04:45;4.38;;;1.92;;
59408;SDS011;45213;32.654;-115.458;2022-07-06T11:07:14;3.03;;;1.58;;
59408;SDS011;45213;32.654;-115.458;2022-07-06T11:09:55;4.13;;;1.95;;
59408;SDS011;45213;32.654;-115.458;2022-07-06T11:12:23;8.68;;;1.95;;
59408;SDS011;45213;32.654;-115.458;2022-07-06T11:14:53;6.53;;;2.22;;
59408;SDS011;45213;32.654;-115.458;2022-07-06T11:17:20;3.35;;;1.85;;
59408;SDS011;45213;32.654;-115.458;2022-07-06T11:22:22;5.15;;;2.03;;
59408;SDS011;45213;32.654;-115.458;2022-07-06T11:24:52;3.95;;;2.00;;
59408;SDS011;45213;32.654;-115.458;2022-07-06T11:27:24;3.13;;;1.85;;
59408;SDS011;45213;32.654;-115.458;2022-07-06T11:29:53;3.33;;;1.92;;
59408;SDS011;45213;32.654;-115.458;2022-07-06T11:32:24;4.35;;;1.70;;
59408;SDS011;45213;32.654;-115.458;2022-07-06T11:34:54;4.20;;;1.92;;
59408;SDS011;45213;32.654;-115.458;2022-07-06T11:37:21;3.58;;;1.63;;
59408;SDS011;45213;32.654;-115.458;2022-07-06T11:39:49;3.40;;;1.50;;
59408;SDS011;45213;32.654;-115.458;2022-07-06T11:42:16;3.08;;;1.50;;
59408;SDS011;45213;32.654;-115.458;2022-07-06T11:44:44;5.68;;;1.98;;
59408;SDS011;45213;32.654;-115.458;2022-07-06T11:47:11;3.08;;;1.30;;
59408;SDS011;45213;32.654;-115.458;2022-07-06T11:49:42;4.13;;;1.52;;
59408;SDS011;45213;32.654;-115.458;2022-07-06T11:52:12;3.95;;;1.92;;
59408;SDS011;45213;32.654;-115.458;2022-07-06T11:54:40;5.07;;;1.98;;
59408;SDS011;45213;32.654;-115.458;2022-07-06T11:57:09;3.90;;;1.90;;
59408;SDS011;45213;32.654;-115.458;2022-07-06T11:59:38;4.25;;;1.80;;
59408;SDS011;45213;32.654;-115.458;2022-07-06T12:02:07;6.50;;;1.80;;
59408;SDS011;45213;32.654;-115.458;2022-07-06T12:04:39;3.75;;;1.55;;
59408;SDS011;45213;32.654;-115.458;2022-07-06T12:07:11;4.00;;;1.75;;
59408;SDS011;45213;32.654;-115.458;2022-07-06T12:09:40;4.88;;;1.80;;
59408;SDS011;45213;32.654;-115.458;2022-07-06T12:12:09;3.65;;;1.50;;
59408;SDS011;45213;32.654;-115.458;2022-07-06T12:14:37;5.97;;;1.98;;
59408;SDS011;45213;32.654;-115.458;2022-07-06T12:17:08;4.47;;;1.85;;
59408;SDS011;45213;32.654;-115.458;2022-07-06T12:19:37;8.23;;;1.70;;
59408;SDS011;45213;32.654;-115.458;2022-07-06T12:22:04;5.40;;;1.73;;
59408;SDS011;45213;32.654;-115.458;2022-07-06T12:24:32;5.50;;;1.80;;
59408;SDS011;45213;32.654;-115.458;2022-07-06T12:30:09;4.78;;;1.73;;
59408;SDS011;45213;32.654;-115.458;2022-07-06T12:32:36;3.45;;;1.55;;
59408;SDS011;45213;32.654;-115.458;2022-07-06T12:37:31;10.43;;;2.40;;
59408;SDS011;45213;32.654;-115.458;2022-07-06T12:39:58;7.50;;;1.77;;
59408;SDS011;45213;32.654;-115.458;2022-07-06T12:42:24;7.68;;;4.13;;
59408;SDS011;45213;32.654;-115.458;2022-07-06T12:44:56;5.63;;;2.40;;
59408;SDS011;45213;32.654;-115.458;2022-07-06T12:47:23;6.95;;;2.88;;
59408;SDS011;45213;32.654;-115.458;2022-07-06T12:50:07;7.35;;;2.00;;
59408;SDS011;45213;32.654;-115.458;2022-07-06T12:52:35;5.75;;;3.13;;
59408;SDS011;45213;32.654;-115.458;2022-07-06T12:55:02;6.90;;;3.33;;
59408;SDS011;45213;32.654;-115.458;2022-07-06T12:57:42;6.82;;;2.72;;
59408;SDS011;45213;32.654;-115.458;2022-07-06T13:00:17;8.10;;;2.85;;
59408;SDS011;45213;32.654;-115.458;2022-07-06T13:02:45;5.90;;;2.33;;
59408;SDS011;45213;32.654;-115.458;2022-07-06T13:05:17;7.38;;;2.40;;
59408;SDS011;45213;32.654;-115.458;2022-07-06T13:07:45;6.15;;;2.55;;
59408;SDS011;45213;32.654;-115.458;2022-07-06T13:10:13;5.53;;;2.17;;
59408;SDS011;45213;32.654;-115.458;2022-07-06T13:12:42;6.15;;;2.70;;
59408;SDS011;45213;32.654;-115.458;2022-07-06T13:15:09;12.75;;;3.15;;
59408;SDS011;45213;32.654;-115.458;2022-07-06T13:17:40;10.50;;;3.42;;
59408;SDS011;45213;32.654;-115.458;2022-07-06T13:20:08;8.15;;;3.00;;
59408;SDS011;45213;32.654;-115.458;2022-07-06T13:22:37;6.90;;;2.88;;
59408;SDS011;45213;32.654;-115.458;2022-07-06T13:25:05;7.05;;;3.15;;
59408;SDS011;45213;32.654;-115.458;2022-07-06T13:27:32;7.55;;;3.40;;
59408;SDS011;45213;32.654;-115.458;2022-07-06T13:29:59;10.18;;;3.10;;
59408;SDS011;45213;32.654;-115.458;2022-07-06T13:32:26;11.93;;;3.08;;
59408;SDS011;45213;32.654;-115.458;2022-07-06T13:34:52;13.63;;;3.55;;
59408;SDS011;45213;32.654;-115.458;2022-07-06T13:37:19;12.43;;;3.90;;
59408;SDS011;45213;32.654;-115.458;2022-07-06T13:39:47;10.82;;;4.43;;
59408;SDS011;45213;32.654;-115.458;2022-07-06T13:42:13;7.30;;;4.22;;
59408;SDS011;45213;32.654;-115.458;2022-07-06T13:44:42;9.05;;;3.88;;
59408;SDS011;45213;32.654;-115.458;2022-07-06T13:47:09;10.43;;;3.88;;
59408;SDS011;45213;32.654;-115.458;2022-07-06T13:49:36;6.63;;;2.97;;
59408;SDS011;45213;32.654;-115.458;2022-07-06T13:52:03;8.10;;;3.22;;
59408;SDS011;45213;32.654;-115.458;2022-07-06T13:54:33;11.55;;;2.97;;
59408;SDS011;45213;32.654;-115.458;2022-07-06T13:57:03;15.60;;;3.13;;
59408;SDS011;45213;32.654;-115.458;2022-07-06T13:59:31;8.68;;;2.30;;
59408;SDS011;45213;32.654;-115.458;2022-07-06T14:01:58;8.57;;;2.15;;
59408;SDS011;45213;32.654;-115.458;2022-07-06T14:04:27;4.80;;;2.00;;
59408;SDS011;45213;32.654;-115.458;2022-07-06T14:06:57;9.43;;;2.97;;
59408;SDS011;45213;32.654;-115.458;2022-07-06T14:09:23;6.50;;;2.22;;
59408;SDS011;45213;32.654;-115.458;2022-07-06T14:11:53;9.43;;;2.78;;
59408;SDS011;45213;32.654;-115.458;2022-07-06T14:14:20;6.55;;;1.83;;
59408;SDS011;45213;32.654;-115.458;2022-07-06T14:16:46;7.47;;;2.10;;
59408;SDS011;45213;32.654;-115.458;2022-07-06T14:19:19;8.75;;;2.22;;
59408;SDS011;45213;32.654;-115.458;2022-07-06T14:21:51;9.25;;;2.53;;
59408;SDS011;45213;32.654;-115.458;2022-07-06T14:24:17;7.80;;;2.70;;
59408;SDS011;45213;32.654;-115.458;2022-07-06T14:26:44;13.38;;;2.75;;
59408;SDS011;45213;32.654;-115.458;2022-07-06T14:29:13;8.32;;;2.65;;